Flight Track Log - Related Links

Times and Time Zones

All times are in EDT time to prevent confusion due to time zone crossing. See the HAL110 flight status page for this flight to view local times or setup timezone preferences in your user account.

Time Position Orientation Groundspeed Altitude Reporting Facility
EDT Latitude Longitude Course Direction KTS MPH feet Rate Location/Type
Thu 01:06:43 PM 21.9833 -159.3167 119° Southeast 170 196 1,000  Level Honolulu Center
Thu 01:07:43 PM 21.9500 -159.2667 126° Southeast 190 219 2,900 1,900 Climbing Honolulu Center
Thu 01:08:43 PM 21.9167 -159.2167 126° Southeast 220 253 4,800 2,100 Climbing Honolulu Center
Thu 01:09:00 PM 21.8976 -159.1679 118° Southeast  Level Estimated
Thu 01:09:43 PM 21.8833 -159.1667 126° Southeast 240 276 7,100  Level Honolulu Center
Thu 01:10:00 PM 21.8714 -159.1110 118° Southeast  Level Estimated
Thu 01:10:43 PM 21.8500 -159.1000 118° Southeast 270 311 8,800  Level Honolulu Center
Thu 01:11:00 PM 21.8452 -159.0540 116° Southeast  Level Estimated
Thu 01:11:44 PM 21.8000 -159.0167 123° Southeast 300 345 10,800  Level Honolulu Center
Thu 01:12:00 PM 21.8167 -158.9984 119° Southeast  Level FlightAware Approximate
Thu 01:12:44 PM 21.7500 -158.9333 123° Southeast 320 368 12,400  Level Honolulu Center
Thu 01:13:44 PM 21.7000 -158.8667 129° Southeast 350 403 13,000 300 Climbing Honolulu Center
Thu 01:14:44 PM 21.6500 -158.7667 118° Southeast 360 414 13,000 -300 Level Honolulu Center
Thu 01:15:44 PM 21.6000 -158.6833 123° Southeast 310 357 12,400 -1,200 Descending Honolulu Center
Thu 01:16:44 PM 21.5500 -158.6167 129° Southeast 290 334 10,600 -1,650 Descending Honolulu Center
Thu 01:17:44 PM 21.5167 -158.5333 113° Southeast 280 322 9,100 -1,300 Descending Honolulu Center
Thu 01:18:44 PM 21.4667 -158.4667 129° Southeast 280 322 8,000 -700 Descending Honolulu Center
Thu 01:19:44 PM 21.4333 -158.4000 118° Southeast 280 322 7,700 -496 Descending Honolulu Center
Thu 01:20:45 PM 21.4000 -158.3167 113° Southeast 280 322 7,000 -1,091 Descending Honolulu Center
Thu 01:21:45 PM 21.3667 -158.2500 118° Southeast 270 311 5,500 -1,600 Descending Honolulu Center
Thu 01:22:45 PM 21.3333 -158.1833 118° Southeast 260 299 3,800 -1,300 Descending Honolulu Center
Thu 01:23:45 PM 21.3167 -158.1000 102° East 250 288 2,900 -900 Descending Honolulu Center

Login

Don't have an account? Register now (free) for customized features, flight alerts, and more!